Time,TemperatureF,DewpointF,PressureIn,WindDirection,WindDirectionDegrees,WindSpeedMPH,WindSpeedGustMPH,Humidity,HourlyPrecipIn,Conditions,Clouds,dailyrainin,SolarRadiationWatts/m^2,SoftwareType,DateUTC
2013-01-28 00:03:00,41.5,32.8,30.01,NW,316,2.0,5.0,71,0.00,,,0.00,0,HR-IXPWINDi_r2_v1.2.,2013-01-28 08:03:00,
2013-01-28 00:08:00,41.2,32.8,30.01,NW,312,5.0,5.0,72,0.00,,,0.00,0,HR-IXPWINDi_r2_v1.2.,2013-01-28 08:08:00,
2013-01-28 00:14:00,41.3,32.9,30.01,NW,325,3.0,5.0,72,0.00,,,0.00,0,HR-IXPWINDi_r2_v1.2.,2013-01-28 08:14:00,
2013-01-28 00:19:00,40.9,32.9,30.01,NW,307,2.0,3.0,73,0.00,,,0.00,0,HR-IXPWINDi_r2_v1.2.,2013-01-28 08:19:00,
2013-01-28 00:24:00,41.2,32.5,30.01,NW,319,2.0,5.0,71,0.00,,,0.00,0,HR-IXPWINDi_r2_v1.2.,2013-01-28 08:24:00,
2013-01-28 00:30:00,41.2,32.5,30.01,NW,312,1.0,5.0,71,0.00,,,0.00,0,HR-IXPWINDi_r2_v1.2.,2013-01-28 08:30:00,
2013-01-28 00:35:00,40.7,32.3,30.01,NNW,333,2.0,4.0,72,0.00,,,0.00,0,HR-IXPWINDi_r2_v1.2.,2013-01-28 08:35:00,
2013-01-28 00:40:00,40.4,32.4,30.01,NW,313,1.0,3.0,73,0.00,,,0.00,0,HR-IXPWINDi_r2_v1.2.,2013-01-28 08:40:00,
2013-01-28 00:45:00,40.2,32.2,30.01,NW,305,2.0,3.0,73,0.00,,,0.00,0,HR-IXPWINDi_r2_v1.2.,2013-01-28 08:45:00,
2013-01-28 00:51:00,40.0,32.0,30.01,WNW,298,2.0,4.0,73,0.00,,,0.00,0,HR-IXPWINDi_r2_v1.2.,2013-01-28 08:51:00,
2013-01-28 00:56:00,40.1,32.1,30.01,West,280,2.0,4.0,73,0.00,,,0.00,0,HR-IXPWINDi_r2_v1.2.,2013-01-28 08:56:00,
2013-01-28 01:01:00,40.7,31.7,30.01,WNW,283,1.0,4.0,70,0.00,,,0.00,0,HR-IXPWINDi_r2_v1.2.,2013-01-28 09:01:00,
2013-01-28 01:06:00,39.9,32.3,30.02,WNW,288,2.0,4.0,74,0.00,,,0.00,0,HR-IXPWINDi_r2_v1.2.,2013-01-28 09:06:00,
2013-01-28 01:12:00,39.5,31.9,30.02,WNW,284,0.0,2.0,74,0.00,,,0.00,0,HR-IXPWINDi_r2_v1.2.,2013-01-28 09:12:00,
2013-01-28 01:17:00,38.6,32.0,30.03,WNW,284,1.0,2.0,77,0.00,,,0.00,0,HR-IXPWINDi_r2_v1.2.,2013-01-28 09:17:00,
2013-01-28 01:22:00,38.3,32.3,30.02,WNW,284,1.0,2.0,79,0.00,,,0.00,0,HR-IXPWINDi_r2_v1.2.,2013-01-28 09:22:00,
2013-01-28 01:27:00,38.2,32.9,30.02,WNW,286,0.0,2.0,81,0.00,,,0.00,0,HR-IXPWINDi_r2_v1.2.,2013-01-28 09:27:00,
2013-01-28 01:32:00,37.5,32.8,30.02,WNW,286,2.0,3.0,83,0.00,,,0.00,0,HR-IXPWINDi_r2_v1.2.,2013-01-28 09:32:00,
2013-01-28 01:37:00,37.4,32.7,30.02,NW,307,0.0,3.0,83,0.00,,,0.00,0,HR-IXPWINDi_r2_v1.2.,2013-01-28 09:37:00,
2013-01-28 01:43:00,37.8,32.8,30.02,WNW,293,0.0,3.0,82,0.00,,,0.00,0,HR-IXPWINDi_r2_v1.2.,2013-01-28 09:43:00,
2013-01-28 01:48:00,37.9,33.2,30.03,WNW,293,0.0,3.0,83,0.00,,,0.00,0,HR-IXPWINDi_r2_v1.2.,2013-01-28 09:48:00,
2013-01-28 01:53:00,37.2,32.8,30.03,WNW,293,1.0,2.0,84,0.00,,,0.00,0,HR-IXPWINDi_r2_v1.2.,2013-01-28 09:53:00,
2013-01-28 01:58:00,37.0,32.9,30.03,WNW,295,3.0,3.0,85,0.00,,,0.00,0,HR-IXPWINDi_r2_v1.2.,2013-01-28 09:58:00,
2013-01-28 02:03:00,37.3,33.2,30.03,WNW,300,1.0,3.0,85,0.00,,,0.00,0,HR-IXPWINDi_r2_v1.2.,2013-01-28 10:03:00,
2013-01-28 02:09:00,37.6,32.9,30.03,NW,307,0.0,3.0,83,0.00,,,0.00,0,HR-IXPWINDi_r2_v1.2.,2013-01-28 10:09:00,
2013-01-28 02:14:00,37.7,33.0,30.03,NW,307,0.0,2.0,83,0.00,,,0.00,0,HR-IXPWINDi_r2_v1.2.,2013-01-28 10:14:00,
2013-01-28 02:19:00,37.9,32.9,30.03,SSW,208,1.0,3.0,82,0.00,,,0.00,0,HR-IXPWINDi_r2_v1.2.,2013-01-28 10:19:00,
2013-01-28 02:24:00,38.3,33.0,30.04,SSW,208,1.0,4.0,81,0.00,,,0.00,0,HR-IXPWINDi_r2_v1.2.,2013-01-28 10:24:00,
2013-01-28 02:30:00,39.1,32.8,30.04,SSW,208,0.0,4.0,78,0.00,,,0.00,0,HR-IXPWINDi_r2_v1.2.,2013-01-28 10:30:00,
2013-01-28 02:35:00,39.1,32.5,30.04,SW,236,1.0,2.0,77,0.00,,,0.00,0,HR-IXPWINDi_r2_v1.2.,2013-01-28 10:35:00,
2013-01-28 02:40:00,38.8,32.8,30.04,West,266,2.0,3.0,79,0.00,,,0.00,0,HR-IXPWINDi_r2_v1.2.,2013-01-28 10:40:00,
2013-01-28 02:45:00,38.6,33.2,30.04,West,266,1.0,3.0,81,0.00,,,0.00,0,HR-IXPWINDi_r2_v1.2.,2013-01-28 10:45:00,
2013-01-28 02:50:00,38.7,33.9,30.05,West,266,1.0,2.0,83,0.00,,,0.00,0,HR-IXPWINDi_r2_v1.2.,2013-01-28 10:50:00,
2013-01-28 02:55:00,38.6,33.5,30.05,West,266,0.0,2.0,82,0.00,,,0.00,0,HR-IXPWINDi_r2_v1.2.,2013-01-28 10:55:00,
2013-01-28 03:01:00,38.9,33.2,30.05,West,266,0.0,2.0,80,0.00,,,0.00,0,HR-IXPWINDi_r2_v1.2.,2013-01-28 11:01:00,
2013-01-28 03:06:00,39.0,33.3,30.05,West,266,0.0,2.0,80,0.00,,,0.00,0,HR-IXPWINDi_r2_v1.2.,2013-01-28 11:06:00,
2013-01-28 03:11:00,39.1,33.7,30.05,West,266,0.0,2.0,81,0.00,,,0.00,0,HR-IXPWINDi_r2_v1.2.,2013-01-28 11:11:00,
2013-01-28 03:16:00,38.8,34.0,30.05,West,266,0.0,1.0,83,0.00,,,0.00,0,HR-IXPWINDi_r2_v1.2.,2013-01-28 11:16:00,
2013-01-28 03:22:00,38.7,34.2,30.05,West,266,0.0,2.0,84,0.00,,,0.00,0,HR-IXPWINDi_r2_v1.2.,2013-01-28 11:22:00,
2013-01-28 03:27:00,38.8,34.0,30.05,West,266,0.0,2.0,83,0.00,,,0.00,0,HR-IXPWINDi_r2_v1.2.,2013-01-28 11:27:00,
2013-01-28 03:32:00,38.6,34.4,30.05,West,266,0.0,1.0,85,0.00,,,0.00,0,HR-IXPWINDi_r2_v1.2.,2013-01-28 11:32:00,
2013-01-28 03:37:00,38.2,34.3,30.05,West,266,0.0,0.0,86,0.00,,,0.00,0,HR-IXPWINDi_r2_v1.2.,2013-01-28 11:37:00,
2013-01-28 03:42:00,38.4,34.2,30.05,West,266,0.0,1.0,85,0.00,,,0.00,0,HR-IXPWINDi_r2_v1.2.,2013-01-28 11:42:00,
2013-01-28 03:47:00,38.5,34.3,30.05,West,266,1.0,2.0,85,0.00,,,0.00,0,HR-IXPWINDi_r2_v1.2.,2013-01-28 11:47:00,
2013-01-28 03:52:00,38.4,34.2,30.05,West,279,3.0,4.0,85,0.00,,,0.00,0,HR-IXPWINDi_r2_v1.2.,2013-01-28 11:52:00,
2013-01-28 03:57:00,38.9,34.1,30.05,West,275,0.0,4.0,83,0.00,,,0.00,0,HR-IXPWINDi_r2_v1.2.,2013-01-28 11:57:00,
2013-01-28 04:03:00,38.9,34.1,30.05,West,275,0.0,4.0,83,0.00,,,0.00,0,HR-IXPWINDi_r2_v1.2.,2013-01-28 12:03:00,
2013-01-28 04:08:00,38.6,34.1,30.05,WNW,282,3.0,3.0,84,0.00,,,0.00,0,HR-IXPWINDi_r2_v1.2.,2013-01-28 12:08:00,
2013-01-28 04:13:00,38.6,34.1,30.05,WNW,282,0.0,3.0,84,0.00,,,0.00,0,HR-IXPWINDi_r2_v1.2.,2013-01-28 12:13:00,
2013-01-28 04:18:00,38.4,34.0,30.05,WNW,282,2.0,3.0,84,0.00,,,0.00,0,HR-IXPWINDi_r2_v1.2.,2013-01-28 12:18:00,
2013-01-28 04:23:00,38.6,33.5,30.05,WNW,286,1.0,3.0,82,0.00,,,0.00,0,HR-IXPWINDi_r2_v1.2.,2013-01-28 12:23:00,
2013-01-28 04:29:00,38.3,33.9,30.05,West,281,3.0,3.0,84,0.00,,,0.00,0,HR-IXPWINDi_r2_v1.2.,2013-01-28 12:29:00,
2013-01-28 04:34:00,38.6,33.9,30.05,WNW,286,1.0,4.0,83,0.00,,,0.00,0,HR-IXPWINDi_r2_v1.2.,2013-01-28 12:34:00,
2013-01-28 04:39:00,38.5,33.5,30.05,WNW,294,1.0,4.0,82,0.00,,,0.00,0,HR-IXPWINDi_r2_v1.2.,2013-01-28 12:39:00,
2013-01-28 04:44:00,38.2,33.8,30.04,WNW,294,0.0,3.0,84,0.00,,,0.00,0,HR-IXPWINDi_r2_v1.2.,2013-01-28 12:44:00,
2013-01-28 04:49:00,38.2,33.8,30.05,WNW,300,3.0,4.0,84,0.00,,,0.00,0,HR-IXPWINDi_r2_v1.2.,2013-01-28 12:49:00,
2013-01-28 04:54:00,39.8,35.3,30.05,WNW,290,3.0,5.0,84,0.00,,,0.00,0,HR-IXPWINDi_r2_v1.2.,2013-01-28 12:54:00,
2013-01-28 05:00:00,40.5,32.5,30.05,WNW,289,3.0,5.0,73,0.00,,,0.00,0,HR-IXPWINDi_r2_v1.2.,2013-01-28 13:00:00,
2013-01-28 05:05:00,40.9,32.2,30.05,WNW,299,3.0,4.0,71,0.00,,,0.00,0,HR-IXPWINDi_r2_v1.2.,2013-01-28 13:05:00,
2013-01-28 05:10:00,40.6,31.9,30.05,WNW,299,2.0,4.0,71,0.00,,,0.00,0,HR-IXPWINDi_r2_v1.2.,2013-01-28 13:10:00,
2013-01-28 05:15:00,39.9,32.3,30.05,NW,304,1.0,3.0,74,0.00,,,0.00,0,HR-IXPWINDi_r2_v1.2.,2013-01-28 13:15:00,
2013-01-28 05:20:00,39.1,32.1,30.05,WNW,300,2.0,3.0,76,0.00,,,0.00,0,HR-IXPWINDi_r2_v1.2.,2013-01-28 13:20:00,
2013-01-28 05:26:00,39.2,31.9,30.05,WNW,296,2.0,3.0,75,0.00,,,0.00,0,HR-IXPWINDi_r2_v1.2.,2013-01-28 13:26:00,
2013-01-28 05:31:00,39.1,31.5,30.05,WNW,296,2.0,3.0,74,0.00,,,0.00,0,HR-IXPWINDi_r2_v1.2.,2013-01-28 13:31:00,
2013-01-28 05:36:00,38.6,32.0,30.05,WNW,296,0.0,3.0,77,0.00,,,0.00,0,HR-IXPWINDi_r2_v1.2.,2013-01-28 13:36:00,
2013-01-28 05:41:00,37.7,32.7,30.06,WNW,296,2.0,3.0,82,0.00,,,0.00,0,HR-IXPWINDi_r2_v1.2.,2013-01-28 13:41:00,
2013-01-28 05:46:00,37.5,32.5,30.06,WNW,291,3.0,5.0,82,0.00,,,0.00,0,HR-IXPWINDi_r2_v1.2.,2013-01-28 13:46:00,
2013-01-28 05:51:00,38.5,32.2,30.06,WNW,298,2.0,5.0,78,0.00,,,0.00,0,HR-IXPWINDi_r2_v1.2.,2013-01-28 13:51:00,
2013-01-28 05:57:00,39.4,31.8,30.06,WNW,296,1.0,5.0,74,0.00,,,0.00,0,HR-IXPWINDi_r2_v1.2.,2013-01-28 13:57:00,
2013-01-28 06:02:00,40.0,31.0,30.06,WNW,291,3.0,6.0,70,0.00,,,0.00,0,HR-IXPWINDi_r2_v1.2.,2013-01-28 14:02:00,
2013-01-28 06:07:00,40.2,30.8,30.06,WNW,297,1.0,6.0,69,0.00,,,0.00,0,HR-IXPWINDi_r2_v1.2.,2013-01-28 14:07:00,
2013-01-28 06:12:00,39.3,30.7,30.07,WNW,297,0.0,4.0,71,0.00,,,0.00,0,HR-IXPWINDi_r2_v1.2.,2013-01-28 14:12:00,
2013-01-28 06:18:00,38.4,31.1,30.08,WNW,297,0.0,2.0,75,0.00,,,0.00,0,HR-IXPWINDi_r2_v1.2.,2013-01-28 14:18:00,
2013-01-28 06:23:00,38.0,31.1,30.08,WNW,294,3.0,5.0,76,0.00,,,0.00,0,HR-IXPWINDi_r2_v1.2.,2013-01-28 14:23:00,
2013-01-28 06:28:00,38.7,31.1,30.08,NW,308,2.0,5.0,74,0.00,,,0.00,0,HR-IXPWINDi_r2_v1.2.,2013-01-28 14:28:00,
2013-01-28 06:33:00,38.9,30.6,30.08,WNW,287,3.0,5.0,72,0.00,,,0.00,0,HR-IXPWINDi_r2_v1.2.,2013-01-28 14:33:00,
2013-01-28 06:38:00,39.2,30.6,30.08,WNW,296,1.0,5.0,71,0.00,,,0.00,0,HR-IXPWINDi_r2_v1.2.,2013-01-28 14:38:00,
2013-01-28 06:44:00,39.0,30.4,30.09,WNW,297,1.0,4.0,71,0.00,,,0.00,0,HR-IXPWINDi_r2_v1.2.,2013-01-28 14:44:00,
2013-01-28 06:49:00,38.7,30.4,30.09,NW,319,2.0,3.0,72,0.00,,,0.00,0,HR-IXPWINDi_r2_v1.2.,2013-01-28 14:49:00,
2013-01-28 06:54:00,38.8,30.5,30.09,NW,318,2.0,3.0,72,0.00,,,0.00,0,HR-IXPWINDi_r2_v1.2.,2013-01-28 14:54:00,
2013-01-28 06:59:00,38.8,30.5,30.09,WNW,296,3.0,4.0,72,0.00,,,0.00,5,HR-IXPWINDi_r2_v1.2.,2013-01-28 14:59:00,
2013-01-28 07:04:00,38.7,30.4,30.09,WNW,293,2.0,4.0,72,0.00,,,0.00,5,HR-IXPWINDi_r2_v1.2.,2013-01-28 15:04:00,
2013-01-28 07:09:00,39.3,30.7,30.09,WNW,298,2.0,4.0,71,0.00,,,0.00,7,HR-IXPWINDi_r2_v1.2.,2013-01-28 15:09:00,
2013-01-28 07:14:00,39.1,30.5,30.09,NW,304,3.0,5.0,71,0.00,,,0.00,9,HR-IXPWINDi_r2_v1.2.,2013-01-28 15:14:00,
2013-01-28 07:20:00,39.5,30.5,30.09,WNW,284,5.0,7.0,70,0.00,,,0.00,11,HR-IXPWINDi_r2_v1.2.,2013-01-28 15:20:00,
2013-01-28 07:25:00,40.2,30.5,30.09,NW,306,2.0,7.0,68,0.00,,,0.00,14,HR-IXPWINDi_r2_v1.2.,2013-01-28 15:25:00,
2013-01-28 07:30:00,39.9,30.5,30.09,NNW,341,2.0,7.0,69,0.00,,,0.00,19,HR-IXPWINDi_r2_v1.2.,2013-01-28 15:30:00,
2013-01-28 07:35:00,39.8,30.8,30.09,WNW,294,2.0,7.0,70,0.00,,,0.00,23,HR-IXPWINDi_r2_v1.2.,2013-01-28 15:35:00,
2013-01-28 07:40:00,40.0,31.0,30.09,NNW,339,3.0,6.0,70,0.00,,,0.00,33,HR-IXPWINDi_r2_v1.2.,2013-01-28 15:40:00,
2013-01-28 07:45:00,40.5,31.5,30.09,WNW,294,1.0,6.0,70,0.00,,,0.00,33,HR-IXPWINDi_r2_v1.2.,2013-01-28 15:45:00,
2013-01-28 07:50:00,41.1,32.0,30.09,NW,326,2.0,6.0,70,0.00,,,0.00,35,HR-IXPWINDi_r2_v1.2.,2013-01-28 15:50:00,
2013-01-28 07:55:00,41.6,31.8,30.09,North,350,1.0,5.0,68,0.00,,,0.00,37,HR-IXPWINDi_r2_v1.2.,2013-01-28 15:55:00,
2013-01-28 08:01:00,41.8,32.7,30.09,NW,319,4.0,5.0,70,0.00,,,0.00,37,HR-IXPWINDi_r2_v1.2.,2013-01-28 16:01:00,
2013-01-28 08:06:00,42.6,32.4,30.10,North,355,1.0,4.0,67,0.00,,,0.00,39,HR-IXPWINDi_r2_v1.2.,2013-01-28 16:06:00,
2013-01-28 08:11:00,43.4,31.6,30.10,NW,308,0.0,3.0,63,0.00,,,0.00,40,HR-IXPWINDi_r2_v1.2.,2013-01-28 16:11:00,
2013-01-28 08:16:00,44.2,31.6,30.10,WNW,294,3.0,4.0,61,0.00,,,0.00,42,HR-IXPWINDi_r2_v1.2.,2013-01-28 16:16:00,
2013-01-28 08:22:00,44.6,31.5,30.10,North,355,2.0,4.0,60,0.00,,,0.00,42,HR-IXPWINDi_r2_v1.2.,2013-01-28 16:22:00,
2013-01-28 08:27:00,45.0,33.5,30.10,North,355,1.0,4.0,64,0.00,,,0.00,53,HR-IXPWINDi_r2_v1.2.,2013-01-28 16:27:00,
2013-01-28 08:32:00,45.4,35.8,30.10,North,355,0.0,3.0,69,0.00,,,0.00,21,HR-IXPWINDi_r2_v1.2.,2013-01-28 16:32:00,
2013-01-28 08:37:00,46.1,35.0,30.10,North,355,0.0,2.0,65,0.00,,,0.00,42,HR-IXPWINDi_r2_v1.2.,2013-01-28 16:37:00,
2013-01-28 08:43:00,46.5,36.1,30.10,East,92,2.0,3.0,67,0.00,,,0.00,46,HR-IXPWINDi_r2_v1.2.,2013-01-28 16:43:00,
2013-01-28 08:48:00,46.7,34.3,30.10,East,92,0.0,3.0,62,0.00,,,0.00,46,HR-IXPWINDi_r2_v1.2.,2013-01-28 16:48:00,
2013-01-28 08:53:00,46.7,36.7,30.10,East,92,0.0,2.0,68,0.00,,,0.00,49,HR-IXPWINDi_r2_v1.2.,2013-01-28 16:53:00,
2013-01-28 08:59:00,46.8,34.4,30.10,East,92,0.0,2.0,62,0.00,,,0.00,44,HR-IXPWINDi_r2_v1.2.,2013-01-28 16:59:00,
2013-01-28 09:04:00,47.1,33.1,30.10,ENE,61,1.0,2.0,58,0.00,,,0.00,47,HR-IXPWINDi_r2_v1.2.,2013-01-28 17:04:00,
2013-01-28 09:09:00,47.6,34.8,30.10,ENE,61,0.0,3.0,61,0.00,,,0.00,46,HR-IXPWINDi_r2_v1.2.,2013-01-28 17:09:00,
2013-01-28 09:14:00,47.8,33.3,30.10,ENE,61,0.0,3.0,57,0.00,,,0.00,49,HR-IXPWINDi_r2_v1.2.,2013-01-28 17:14:00,
2013-01-28 09:19:00,48.3,34.2,30.10,SE,140,0.0,3.0,58,0.00,,,0.00,62,HR-IXPWINDi_r2_v1.2.,2013-01-28 17:19:00,
2013-01-28 09:24:00,48.3,36.7,30.10,East,94,0.0,2.0,64,0.00,,,0.00,49,HR-IXPWINDi_r2_v1.2.,2013-01-28 17:24:00,
2013-01-28 09:30:00,48.6,38.5,30.11,SSE,153,1.0,3.0,68,0.00,,,0.00,70,HR-IXPWINDi_r2_v1.2.,2013-01-28 17:30:00,
2013-01-28 09:35:00,48.8,37.1,30.11,SSE,148,1.0,3.0,64,0.00,,,0.00,47,HR-IXPWINDi_r2_v1.2.,2013-01-28 17:35:00,
2013-01-28 09:40:00,49.1,34.9,30.11,South,175,0.0,3.0,58,0.00,,,0.00,62,HR-IXPWINDi_r2_v1.2.,2013-01-28 17:40:00,
2013-01-28 09:45:00,49.3,36.0,30.11,South,171,2.0,3.0,60,0.00,,,0.00,47,HR-IXPWINDi_r2_v1.2.,2013-01-28 17:45:00,
2013-01-28 09:50:00,49.3,35.1,30.11,SSE,149,0.0,3.0,58,0.00,,,0.00,47,HR-IXPWINDi_r2_v1.2.,2013-01-28 17:50:00,
2013-01-28 09:55:00,49.8,35.1,30.12,South,178,0.0,3.0,57,0.00,,,0.00,47,HR-IXPWINDi_r2_v1.2.,2013-01-28 17:55:00,
2013-01-28 10:00:00,50.1,34.5,30.12,South,175,1.0,4.0,55,0.00,,,0.00,49,HR-IXPWINDi_r2_v1.2.,2013-01-28 18:00:00,
2013-01-28 10:06:00,50.3,35.2,30.11,South,173,2.0,4.0,56,0.00,,,0.00,49,HR-IXPWINDi_r2_v1.2.,2013-01-28 18:06:00,
2013-01-28 10:11:00,50.4,36.6,30.12,South,173,0.0,5.0,59,0.00,,,0.00,54,HR-IXPWINDi_r2_v1.2.,2013-01-28 18:11:00,
2013-01-28 10:16:00,50.8,34.7,30.12,SE,144,0.0,5.0,54,0.00,,,0.00,67,HR-IXPWINDi_r2_v1.2.,2013-01-28 18:16:00,
2013-01-28 10:21:00,51.0,35.4,30.12,SSW,196,3.0,5.0,55,0.00,,,0.00,74,HR-IXPWINDi_r2_v1.2.,2013-01-28 18:21:00,
2013-01-28 10:26:00,51.7,35.6,30.11,South,182,1.0,5.0,54,0.00,,,0.00,72,HR-IXPWINDi_r2_v1.2.,2013-01-28 18:26:00,
2013-01-28 10:32:00,51.4,34.3,30.11,South,177,7.0,7.0,52,0.00,,,0.00,374,HR-IXPWINDi_r2_v1.2.,2013-01-28 18:32:00,
2013-01-28 10:37:00,52.2,35.1,30.12,SSW,192,0.0,7.0,52,0.00,,,0.00,392,HR-IXPWINDi_r2_v1.2.,2013-01-28 18:37:00,
2013-01-28 10:42:00,52.4,34.8,30.11,SSE,161,1.0,7.0,51,0.00,,,0.00,406,HR-IXPWINDi_r2_v1.2.,2013-01-28 18:42:00,
2013-01-28 10:47:00,52.5,35.3,30.11,East,84,1.0,4.0,52,0.00,,,0.00,434,HR-IXPWINDi_r2_v1.2.,2013-01-28 18:47:00,
2013-01-28 10:52:00,53.4,35.7,30.11,SSE,167,0.0,4.0,51,0.00,,,0.00,388,HR-IXPWINDi_r2_v1.2.,2013-01-28 18:52:00,
2013-01-28 10:58:00,54.5,34.6,30.11,SSE,161,3.0,4.0,47,0.00,,,0.00,512,HR-IXPWINDi_r2_v1.2.,2013-01-28 18:58:00,
2013-01-28 11:03:00,54.8,33.3,30.11,South,172,0.0,5.0,44,0.00,,,0.00,541,HR-IXPWINDi_r2_v1.2.,2013-01-28 19:03:00,
2013-01-28 11:08:00,54.4,34.0,30.11,NE,38,3.0,6.0,46,0.00,,,0.00,571,HR-IXPWINDi_r2_v1.2.,2013-01-28 19:08:00,
2013-01-28 11:13:00,55.2,35.8,30.10,South,176,1.0,6.0,48,0.00,,,0.00,589,HR-IXPWINDi_r2_v1.2.,2013-01-28 19:13:00,
2013-01-28 11:18:00,55.0,33.5,30.10,ENE,77,2.0,6.0,44,0.00,,,0.00,605,HR-IXPWINDi_r2_v1.2.,2013-01-28 19:18:00,
2013-01-28 11:23:00,55.7,36.8,30.10,SE,146,1.0,6.0,49,0.00,,,0.00,621,HR-IXPWINDi_r2_v1.2.,2013-01-28 19:23:00,
2013-01-28 11:29:00,56.3,35.8,30.10,South,182,1.0,8.0,46,0.00,,,0.00,622,HR-IXPWINDi_r2_v1.2.,2013-01-28 19:29:00,
2013-01-28 11:34:00,56.4,38.0,30.10,SE,146,1.0,8.0,50,0.00,,,0.00,626,HR-IXPWINDi_r2_v1.2.,2013-01-28 19:34:00,
2013-01-28 11:39:00,57.1,37.6,30.10,South,178,2.0,7.0,48,0.00,,,0.00,628,HR-IXPWINDi_r2_v1.2.,2013-01-28 19:39:00,
2013-01-28 11:44:00,57.1,38.1,30.09,SSE,156,2.0,7.0,49,0.00,,,0.00,589,HR-IXPWINDi_r2_v1.2.,2013-01-28 19:44:00,
2013-01-28 11:49:00,57.9,38.3,30.09,SSE,164,2.0,7.0,48,0.00,,,0.00,635,HR-IXPWINDi_r2_v1.2.,2013-01-28 19:49:00,
2013-01-28 11:55:00,57.1,35.4,30.09,SSW,198,0.0,8.0,44,0.00,,,0.00,636,HR-IXPWINDi_r2_v1.2.,2013-01-28 19:55:00,
2013-01-28 12:00:00,57.2,38.7,30.09,ESE,104,1.0,8.0,50,0.00,,,0.00,636,HR-IXPWINDi_r2_v1.2.,2013-01-28 20:00:00,
2013-01-28 12:05:00,57.7,38.6,30.09,South,180,0.0,4.0,49,0.00,,,0.00,635,HR-IXPWINDi_r2_v1.2.,2013-01-28 20:05:00,
2013-01-28 12:10:00,58.1,39.0,30.09,South,171,0.0,5.0,49,0.00,,,0.00,635,HR-IXPWINDi_r2_v1.2.,2013-01-28 20:10:00,
2013-01-28 12:15:00,58.6,37.3,30.09,SSW,194,7.0,9.0,45,0.00,,,0.00,628,HR-IXPWINDi_r2_v1.2.,2013-01-28 20:15:00,
2013-01-28 12:20:00,58.4,38.7,30.08,ESE,103,1.0,9.0,48,0.00,,,0.00,619,HR-IXPWINDi_r2_v1.2.,2013-01-28 20:20:00,
2013-01-28 12:26:00,57.6,37.5,30.08,SE,144,4.0,9.0,47,0.00,,,0.00,608,HR-IXPWINDi_r2_v1.2.,2013-01-28 20:26:00,
2013-01-28 12:31:00,58.5,37.8,30.08,SE,143,1.0,7.0,46,0.00,,,0.00,53,HR-IXPWINDi_r2_v1.2.,2013-01-28 20:31:00,
2013-01-28 12:36:00,57.7,35.3,30.08,SSW,211,0.0,7.0,43,0.00,,,0.00,536,HR-IXPWINDi_r2_v1.2.,2013-01-28 20:36:00,
2013-01-28 12:41:00,58.5,39.9,30.08,South,169,5.0,7.0,50,0.00,,,0.00,473,HR-IXPWINDi_r2_v1.2.,2013-01-28 20:41:00,
2013-01-28 12:46:00,58.9,37.6,30.08,South,175,1.0,6.0,45,0.00,,,0.00,450,HR-IXPWINDi_r2_v1.2.,2013-01-28 20:46:00,
2013-01-28 12:51:00,59.1,39.4,30.07,East,99,1.0,6.0,48,0.00,,,0.00,489,HR-IXPWINDi_r2_v1.2.,2013-01-28 20:51:00,
2013-01-28 12:57:00,59.7,40.5,30.07,East,85,2.0,6.0,49,0.00,,,0.00,496,HR-IXPWINDi_r2_v1.2.,2013-01-28 20:57:00,
2013-01-28 13:02:00,58.9,40.3,30.07,SE,134,1.0,6.0,50,0.00,,,0.00,512,HR-IXPWINDi_r2_v1.2.,2013-01-28 21:02:00,
2013-01-28 13:07:00,59.5,40.8,30.07,South,169,2.0,7.0,50,0.00,,,0.00,543,HR-IXPWINDi_r2_v1.2.,2013-01-28 21:07:00,
2013-01-28 13:12:00,59.1,39.9,30.07,South,169,4.0,7.0,49,0.00,,,0.00,578,HR-IXPWINDi_r2_v1.2.,2013-01-28 21:12:00,
2013-01-28 13:18:00,59.0,38.2,30.07,SSE,147,7.0,9.0,46,0.00,,,0.00,591,HR-IXPWINDi_r2_v1.2.,2013-01-28 21:18:00,
2013-01-28 13:23:00,59.7,40.5,30.07,South,188,1.0,9.0,49,0.00,,,0.00,591,HR-IXPWINDi_r2_v1.2.,2013-01-28 21:23:00,
2013-01-28 13:28:00,59.8,40.6,30.07,ESE,118,1.0,7.0,49,0.00,,,0.00,594,HR-IXPWINDi_r2_v1.2.,2013-01-28 21:28:00,
2013-01-28 13:33:00,59.7,40.5,30.07,SSW,198,1.0,6.0,49,0.00,,,0.00,515,HR-IXPWINDi_r2_v1.2.,2013-01-28 21:33:00,
2013-01-28 13:39:00,59.6,41.4,30.07,South,180,3.0,7.0,51,0.00,,,0.00,587,HR-IXPWINDi_r2_v1.2.,2013-01-28 21:39:00,
2013-01-28 13:44:00,59.5,39.8,30.07,South,182,1.0,7.0,48,0.00,,,0.00,566,HR-IXPWINDi_r2_v1.2.,2013-01-28 21:44:00,
2013-01-28 13:49:00,59.7,40.5,30.06,SSE,159,1.0,7.0,49,0.00,,,0.00,559,HR-IXPWINDi_r2_v1.2.,2013-01-28 21:49:00,
2013-01-28 13:54:00,60.0,42.3,30.06,South,174,2.0,7.0,52,0.00,,,0.00,555,HR-IXPWINDi_r2_v1.2.,2013-01-28 21:54:00,
2013-01-28 13:59:00,60.1,41.4,30.06,ESE,107,0.0,7.0,50,0.00,,,0.00,545,HR-IXPWINDi_r2_v1.2.,2013-01-28 21:59:00,
2013-01-28 14:05:00,60.2,41.4,30.06,South,175,1.0,6.0,50,0.00,,,0.00,526,HR-IXPWINDi_r2_v1.2.,2013-01-28 22:05:00,
2013-01-28 14:10:00,60.3,42.6,30.06,ESE,122,1.0,6.0,52,0.00,,,0.00,519,HR-IXPWINDi_r2_v1.2.,2013-01-28 22:10:00,
2013-01-28 14:15:00,59.7,42.0,30.06,SSE,159,3.0,6.0,52,0.00,,,0.00,406,HR-IXPWINDi_r2_v1.2.,2013-01-28 22:15:00,
2013-01-28 14:20:00,59.7,41.0,30.06,South,190,2.0,7.0,50,0.00,,,0.00,499,HR-IXPWINDi_r2_v1.2.,2013-01-28 22:20:00,
2013-01-28 14:25:00,60.8,41.5,30.05,SSE,160,2.0,7.0,49,0.00,,,0.00,496,HR-IXPWINDi_r2_v1.2.,2013-01-28 22:25:00,
2013-01-28 14:31:00,60.8,42.5,30.05,South,170,2.0,8.0,51,0.00,,,0.00,450,HR-IXPWINDi_r2_v1.2.,2013-01-28 22:31:00,
2013-01-28 14:36:00,60.2,41.4,30.05,South,173,0.0,8.0,50,0.00,,,0.00,387,HR-IXPWINDi_r2_v1.2.,2013-01-28 22:36:00,
2013-01-28 14:41:00,59.4,41.7,30.05,SSE,156,1.0,4.0,52,0.00,,,0.00,445,HR-IXPWINDi_r2_v1.2.,2013-01-28 22:41:00,
2013-01-28 14:46:00,59.8,39.5,30.05,South,189,2.0,5.0,47,0.00,,,0.00,434,HR-IXPWINDi_r2_v1.2.,2013-01-28 22:46:00,
2013-01-28 14:51:00,60.1,40.8,30.05,SSW,202,2.0,5.0,49,0.00,,,0.00,438,HR-IXPWINDi_r2_v1.2.,2013-01-28 22:51:00,
2013-01-28 14:56:00,59.8,39.5,30.05,East,89,1.0,5.0,47,0.00,,,0.00,427,HR-IXPWINDi_r2_v1.2.,2013-01-28 22:56:00,
2013-01-28 15:02:00,59.8,40.0,30.05,SSE,161,2.0,5.0,48,0.00,,,0.00,390,HR-IXPWINDi_r2_v1.2.,2013-01-28 23:02:00,
2013-01-28 15:07:00,59.8,41.1,30.05,SE,132,0.0,6.0,50,0.00,,,0.00,360,HR-IXPWINDi_r2_v1.2.,2013-01-28 23:07:00,
2013-01-28 15:12:00,60.5,40.1,30.05,South,187,2.0,7.0,47,0.00,,,0.00,364,HR-IXPWINDi_r2_v1.2.,2013-01-28 23:12:00,
2013-01-28 15:17:00,60.1,39.8,30.05,SSE,158,1.0,7.0,47,0.00,,,0.00,348,HR-IXPWINDi_r2_v1.2.,2013-01-28 23:17:00,
2013-01-28 15:22:00,59.1,39.4,30.06,SSW,198,2.0,6.0,48,0.00,,,0.00,334,HR-IXPWINDi_r2_v1.2.,2013-01-28 23:22:00,
2013-01-28 15:27:00,58.5,37.2,30.06,South,171,3.0,6.0,45,0.00,,,0.00,327,HR-IXPWINDi_r2_v1.2.,2013-01-28 23:27:00,
2013-01-28 15:33:00,58.0,37.3,30.06,South,182,1.0,5.0,46,0.00,,,0.00,72,HR-IXPWINDi_r2_v1.2.,2013-01-28 23:33:00,
2013-01-28 15:38:00,57.5,37.4,30.06,SSE,164,0.0,6.0,47,0.00,,,0.00,51,HR-IXPWINDi_r2_v1.2.,2013-01-28 23:38:00,
2013-01-28 15:43:00,56.9,35.2,30.06,South,189,3.0,6.0,44,0.00,,,0.00,63,HR-IXPWINDi_r2_v1.2.,2013-01-28 23:43:00,
2013-01-28 15:48:00,57.1,36.5,30.06,South,182,2.0,4.0,46,0.00,,,0.00,58,HR-IXPWINDi_r2_v1.2.,2013-01-28 23:48:00,
2013-01-28 15:54:00,57.1,36.5,30.06,ENE,70,2.0,6.0,46,0.00,,,0.00,65,HR-IXPWINDi_r2_v1.2.,2013-01-28 23:54:00,
2013-01-28 15:59:00,57.3,36.7,30.06,ESE,103,3.0,6.0,46,0.00,,,0.00,77,HR-IXPWINDi_r2_v1.2.,2013-01-28 23:59:00,
2013-01-28 16:04:00,56.8,36.8,30.06,NNE,22,1.0,5.0,47,0.00,,,0.00,56,HR-IXPWINDi_r2_v1.2.,2013-01-29 00:04:00,
2013-01-28 16:09:00,56.6,36.6,30.06,ESE,123,0.0,5.0,47,0.00,,,0.00,51,HR-IXPWINDi_r2_v1.2.,2013-01-29 00:09:00,
2013-01-28 16:15:00,56.2,37.3,30.07,East,86,0.0,5.0,49,0.00,,,0.00,44,HR-IXPWINDi_r2_v1.2.,2013-01-29 00:15:00,
2013-01-28 16:20:00,55.8,36.4,30.07,SSW,192,2.0,5.0,48,0.00,,,0.00,33,HR-IXPWINDi_r2_v1.2.,2013-01-29 00:20:00,
2013-01-28 16:25:00,55.6,36.2,30.07,South,173,0.0,5.0,48,0.00,,,0.00,21,HR-IXPWINDi_r2_v1.2.,2013-01-29 00:25:00,
2013-01-28 16:30:00,55.4,35.5,30.07,ESE,111,0.0,3.0,47,0.00,,,0.00,19,HR-IXPWINDi_r2_v1.2.,2013-01-29 00:30:00,
2013-01-28 16:36:00,55.1,36.2,30.07,NNE,26,1.0,4.0,49,0.00,,,0.00,18,HR-IXPWINDi_r2_v1.2.,2013-01-29 00:36:00,
2013-01-28 16:41:00,54.8,36.5,30.07,NNW,332,0.0,4.0,50,0.00,,,0.00,18,HR-IXPWINDi_r2_v1.2.,2013-01-29 00:41:00,
2013-01-28 16:46:00,54.3,36.5,30.08,North,355,1.0,4.0,51,0.00,,,0.00,16,HR-IXPWINDi_r2_v1.2.,2013-01-29 00:46:00,
2013-01-28 16:51:00,53.7,36.5,30.08,North,355,1.0,2.0,52,0.00,,,0.00,16,HR-IXPWINDi_r2_v1.2.,2013-01-29 00:51:00,
2013-01-28 16:57:00,53.4,36.2,30.08,North,355,0.0,2.0,52,0.00,,,0.00,16,HR-IXPWINDi_r2_v1.2.,2013-01-29 00:57:00,
2013-01-28 17:02:00,52.9,36.7,30.08,North,355,0.0,2.0,54,0.00,,,0.00,14,HR-IXPWINDi_r2_v1.2.,2013-01-29 01:02:00,
2013-01-28 17:07:00,52.3,37.0,30.08,NNW,343,2.0,2.0,56,0.00,,,0.00,12,HR-IXPWINDi_r2_v1.2.,2013-01-29 01:07:00,
2013-01-28 17:12:00,52.2,36.0,30.08,NNE,16,6.0,7.0,54,0.00,,,0.00,9,HR-IXPWINDi_r2_v1.2.,2013-01-29 01:12:00,
2013-01-28 17:17:00,52.8,35.6,30.08,NNW,348,0.0,7.0,52,0.00,,,0.00,5,HR-IXPWINDi_r2_v1.2.,2013-01-29 01:17:00,
2013-01-28 17:23:00,52.8,34.6,30.09,North,355,0.0,7.0,50,0.00,,,0.00,0,HR-IXPWINDi_r2_v1.2.,2013-01-29 01:23:00,
2013-01-28 17:28:00,52.5,34.9,30.09,NNW,343,1.0,2.0,51,0.00,,,0.00,0,HR-IXPWINDi_r2_v1.2.,2013-01-29 01:28:00,
2013-01-28 17:33:00,51.9,34.3,30.09,East,95,0.0,2.0,51,0.00,,,0.00,0,HR-IXPWINDi_r2_v1.2.,2013-01-29 01:33:00,
2013-01-28 17:38:00,52.0,33.9,30.09,South,171,0.0,4.0,50,0.00,,,0.00,0,HR-IXPWINDi_r2_v1.2.,2013-01-29 01:38:00,
2013-01-28 17:44:00,52.0,33.4,30.09,ESE,105,0.0,4.0,49,0.00,,,0.00,0,HR-IXPWINDi_r2_v1.2.,2013-01-29 01:44:00,
2013-01-28 17:49:00,51.4,33.4,30.10,SSE,167,1.0,4.0,50,0.00,,,0.00,0,HR-IXPWINDi_r2_v1.2.,2013-01-29 01:49:00,
2013-01-28 17:54:00,51.0,32.5,30.10,ESE,108,0.0,6.0,49,0.00,,,0.00,0,HR-IXPWINDi_r2_v1.2.,2013-01-29 01:54:00,
2013-01-28 17:59:00,51.2,32.7,30.10,SE,138,0.0,6.0,49,0.00,,,0.00,0,HR-IXPWINDi_r2_v1.2.,2013-01-29 01:59:00,
2013-01-28 18:04:00,51.2,32.2,30.10,SSE,156,2.0,2.0,48,0.00,,,0.00,0,HR-IXPWINDi_r2_v1.2.,2013-01-29 02:04:00,
2013-01-28 18:09:00,50.8,31.8,30.10,SE,146,0.0,2.0,48,0.00,,,0.00,0,HR-IXPWINDi_r2_v1.2.,2013-01-29 02:09:00,
2013-01-28 18:15:00,50.5,32.0,30.11,South,171,1.0,3.0,49,0.00,,,0.00,0,HR-IXPWINDi_r2_v1.2.,2013-01-29 02:15:00,
2013-01-28 18:20:00,50.3,31.3,30.11,South,171,1.0,3.0,48,0.00,,,0.00,0,HR-IXPWINDi_r2_v1.2.,2013-01-29 02:20:00,
2013-01-28 18:25:00,49.7,32.3,30.12,South,186,3.0,4.0,51,0.00,,,0.00,0,HR-IXPWINDi_r2_v1.2.,2013-01-29 02:25:00,
2013-01-28 18:30:00,49.1,33.1,30.12,South,186,0.0,4.0,54,0.00,,,0.00,0,HR-IXPWINDi_r2_v1.2.,2013-01-29 02:30:00,
2013-01-28 18:35:00,48.7,32.8,30.12,South,186,0.0,3.0,54,0.00,,,0.00,0,HR-IXPWINDi_r2_v1.2.,2013-01-29 02:35:00,
2013-01-28 18:40:00,48.8,31.9,30.12,SSW,206,2.0,2.0,52,0.00,,,0.00,0,HR-IXPWINDi_r2_v1.2.,2013-01-29 02:40:00,
2013-01-28 18:45:00,47.2,36.4,30.12,SW,227,0.0,2.0,66,0.00,,,0.00,0,HR-IXPWINDi_r2_v1.2.,2013-01-29 02:45:00,
2013-01-28 18:51:00,45.7,35.7,30.12,WNW,296,2.0,3.0,68,0.00,,,0.00,0,HR-IXPWINDi_r2_v1.2.,2013-01-29 02:51:00,
2013-01-28 18:56:00,45.4,35.4,30.12,NW,316,1.0,4.0,68,0.00,,,0.00,0,HR-IXPWINDi_r2_v1.2.,2013-01-29 02:56:00,
2013-01-28 19:01:00,44.8,35.6,30.13,NNW,335,2.0,4.0,70,0.00,,,0.00,0,HR-IXPWINDi_r2_v1.2.,2013-01-29 03:01:00,
2013-01-28 19:06:00,44.6,35.4,30.13,NW,325,2.0,6.0,70,0.00,,,0.00,0,HR-IXPWINDi_r2_v1.2.,2013-01-29 03:06:00,
2013-01-28 19:11:00,44.7,35.1,30.13,NW,326,2.0,6.0,69,0.00,,,0.00,0,HR-IXPWINDi_r2_v1.2.,2013-01-29 03:11:00,
2013-01-28 19:17:00,44.2,35.4,30.13,NW,320,1.0,5.0,71,0.00,,,0.00,0,HR-IXPWINDi_r2_v1.2.,2013-01-29 03:17:00,
2013-01-28 19:22:00,43.8,35.3,30.13,North,360,0.0,4.0,72,0.00,,,0.00,0,HR-IXPWINDi_r2_v1.2.,2013-01-29 03:22:00,
2013-01-28 19:27:00,43.4,35.3,30.13,North,360,0.0,3.0,73,0.00,,,0.00,0,HR-IXPWINDi_r2_v1.2.,2013-01-29 03:27:00,
2013-01-28 19:32:00,43.4,35.6,30.13,SSE,157,2.0,3.0,74,0.00,,,0.00,0,HR-IXPWINDi_r2_v1.2.,2013-01-29 03:32:00,
2013-01-28 19:37:00,44.2,34.3,30.13,WSW,244,2.0,3.0,68,0.00,,,0.00,0,HR-IXPWINDi_r2_v1.2.,2013-01-29 03:37:00,
2013-01-28 19:42:00,45.4,34.3,30.14,WSW,241,0.0,3.0,65,0.00,,,0.00,0,HR-IXPWINDi_r2_v1.2.,2013-01-29 03:42:00,
2013-01-28 19:48:00,44.9,34.6,30.14,WSW,241,0.0,2.0,67,0.00,,,0.00,0,HR-IXPWINDi_r2_v1.2.,2013-01-29 03:48:00,
2013-01-28 19:53:00,44.5,34.2,30.15,WSW,241,0.0,1.0,67,0.00,,,0.00,0,HR-IXPWINDi_r2_v1.2.,2013-01-29 03:53:00,
2013-01-28 19:58:00,44.2,33.5,30.14,WSW,244,1.0,3.0,66,0.00,,,0.00,0,HR-IXPWINDi_r2_v1.2.,2013-01-29 03:58:00,
2013-01-28 20:04:00,43.2,34.0,30.14,WNW,282,0.0,3.0,70,0.00,,,0.00,0,HR-IXPWINDi_r2_v1.2.,2013-01-29 04:04:00,
2013-01-28 20:09:00,42.5,34.8,30.14,WNW,282,1.0,3.0,74,0.00,,,0.00,0,HR-IXPWINDi_r2_v1.2.,2013-01-29 04:09:00,
2013-01-28 20:14:00,42.6,34.2,30.15,WNW,282,0.0,3.0,72,0.00,,,0.00,0,HR-IXPWINDi_r2_v1.2.,2013-01-29 04:14:00,
2013-01-28 20:19:00,42.1,34.7,30.15,WNW,282,0.0,3.0,75,0.00,,,0.00,0,HR-IXPWINDi_r2_v1.2.,2013-01-29 04:19:00,
2013-01-28 20:24:00,41.5,35.1,30.15,WNW,282,0.0,2.0,78,0.00,,,0.00,0,HR-IXPWINDi_r2_v1.2.,2013-01-29 04:24:00,
2013-01-28 20:30:00,41.1,35.4,30.15,WNW,282,0.0,1.0,80,0.00,,,0.00,0,HR-IXPWINDi_r2_v1.2.,2013-01-29 04:30:00,
2013-01-28 20:35:00,40.8,34.8,30.15,NW,305,1.0,3.0,79,0.00,,,0.00,0,HR-IXPWINDi_r2_v1.2.,2013-01-29 04:35:00,
2013-01-28 20:40:00,41.0,34.3,30.15,NW,305,1.0,3.0,77,0.00,,,0.00,0,HR-IXPWINDi_r2_v1.2.,2013-01-29 04:40:00,
2013-01-28 20:45:00,41.6,33.9,30.16,NW,312,1.0,5.0,74,0.00,,,0.00,0,HR-IXPWINDi_r2_v1.2.,2013-01-29 04:45:00,
2013-01-28 20:50:00,42.5,33.7,30.16,NW,316,0.0,5.0,71,0.00,,,0.00,0,HR-IXPWINDi_r2_v1.2.,2013-01-29 04:50:00,
2013-01-28 20:56:00,41.9,34.2,30.16,North,5,2.0,3.0,74,0.00,,,0.00,0,HR-IXPWINDi_r2_v1.2.,2013-01-29 04:56:00,
2013-01-28 21:00:00,41.8,33.7,30.16,North,355,2.0,4.0,73,0.00,,,0.00,0,HR-IXPWINDi_r2_v1.2.,2013-01-29 05:00:00,
2013-01-28 21:05:00,41.7,33.7,30.16,North,350,0.0,4.0,73,0.00,,,0.00,0,HR-IXPWINDi_r2_v1.2.,2013-01-29 05:05:00,
2013-01-28 21:10:00,41.7,33.7,30.16,North,350,0.0,2.0,73,0.00,,,0.00,0,HR-IXPWINDi_r2_v1.2.,2013-01-29 05:10:00,
2013-01-28 21:16:00,41.5,33.8,30.16,North,350,1.0,2.0,74,0.00,,,0.00,0,HR-IXPWINDi_r2_v1.2.,2013-01-29 05:16:00,
2013-01-28 21:21:00,41.4,33.7,30.16,NNW,348,1.0,2.0,74,0.00,,,0.00,0,HR-IXPWINDi_r2_v1.2.,2013-01-29 05:21:00,
2013-01-28 21:26:00,41.3,33.6,30.17,NW,320,1.0,3.0,74,0.00,,,0.00,0,HR-IXPWINDi_r2_v1.2.,2013-01-29 05:26:00,
2013-01-28 21:31:00,41.6,33.6,30.16,NW,313,1.0,3.0,73,0.00,,,0.00,0,HR-IXPWINDi_r2_v1.2.,2013-01-29 05:31:00,
2013-01-28 21:36:00,41.6,33.2,30.17,NW,313,1.0,3.0,72,0.00,,,0.00,0,HR-IXPWINDi_r2_v1.2.,2013-01-29 05:36:00,
2013-01-28 21:41:00,40.8,33.1,30.17,NW,313,2.0,3.0,74,0.00,,,0.00,0,HR-IXPWINDi_r2_v1.2.,2013-01-29 05:41:00,
2013-01-28 21:48:00,40.1,33.8,30.17,NW,325,2.0,3.0,78,0.00,,,0.00,0,HR-IXPWINDi_r2_v1.2.,2013-01-29 05:48:00,
2013-01-28 21:53:00,40.7,33.7,30.17,NW,319,1.0,3.0,76,0.00,,,0.00,0,HR-IXPWINDi_r2_v1.2.,2013-01-29 05:53:00,
2013-01-28 21:59:00,40.7,33.4,30.17,NW,319,1.0,3.0,75,0.00,,,0.00,0,HR-IXPWINDi_r2_v1.2.,2013-01-29 05:59:00,
2013-01-28 22:04:00,40.8,33.5,30.17,NW,306,1.0,3.0,75,0.00,,,0.00,0,HR-IXPWINDi_r2_v1.2.,2013-01-29 06:04:00,
2013-01-28 22:09:00,40.9,33.2,30.17,NW,325,2.0,3.0,74,0.00,,,0.00,0,HR-IXPWINDi_r2_v1.2.,2013-01-29 06:09:00,
2013-01-28 22:14:00,40.7,33.4,30.16,NW,322,3.0,3.0,75,0.00,,,0.00,0,HR-IXPWINDi_r2_v1.2.,2013-01-29 06:14:00,
2013-01-28 22:19:00,40.6,33.6,30.16,NW,318,2.0,3.0,76,0.00,,,0.00,0,HR-IXPWINDi_r2_v1.2.,2013-01-29 06:19:00,
2013-01-28 22:25:00,40.7,33.4,30.16,WNW,296,2.0,4.0,75,0.00,,,0.00,0,HR-IXPWINDi_r2_v1.2.,2013-01-29 06:25:00,
2013-01-28 22:30:00,41.0,33.0,30.16,NW,326,4.0,5.0,73,0.00,,,0.00,0,HR-IXPWINDi_r2_v1.2.,2013-01-29 06:30:00,
2013-01-28 22:35:00,41.1,33.1,30.16,WNW,294,2.0,5.0,73,0.00,,,0.00,0,HR-IXPWINDi_r2_v1.2.,2013-01-29 06:35:00,
2013-01-28 22:40:00,41.1,33.1,30.17,NW,323,3.0,5.0,73,0.00,,,0.00,0,HR-IXPWINDi_r2_v1.2.,2013-01-29 06:40:00,
2013-01-28 22:45:00,41.6,32.9,30.17,WNW,302,1.0,5.0,71,0.00,,,0.00,0,HR-IXPWINDi_r2_v1.2.,2013-01-29 06:45:00,
2013-01-28 22:51:00,41.5,32.8,30.17,NNW,335,3.0,5.0,71,0.00,,,0.00,0,HR-IXPWINDi_r2_v1.2.,2013-01-29 06:51:00,
2013-01-28 22:56:00,40.8,32.8,30.17,NW,323,1.0,4.0,73,0.00,,,0.00,0,HR-IXPWINDi_r2_v1.2.,2013-01-29 06:56:00,
2013-01-28 23:01:00,40.2,32.9,30.17,NW,323,0.0,4.0,75,0.00,,,0.00,0,HR-IXPWINDi_r2_v1.2.,2013-01-29 07:01:00,
2013-01-28 23:07:00,39.8,32.8,30.18,NW,323,0.0,2.0,76,0.00,,,0.00,0,HR-IXPWINDi_r2_v1.2.,2013-01-29 07:07:00,
2013-01-28 23:12:00,39.6,33.0,30.18,NW,323,0.0,1.0,77,0.00,,,0.00,0,HR-IXPWINDi_r2_v1.2.,2013-01-29 07:12:00,
2013-01-28 23:17:00,38.8,32.8,30.18,NW,323,0.0,1.0,79,0.00,,,0.00,0,HR-IXPWINDi_r2_v1.2.,2013-01-29 07:17:00,
2013-01-28 23:22:00,38.7,33.3,30.17,NW,321,0.0,3.0,81,0.00,,,0.00,0,HR-IXPWINDi_r2_v1.2.,2013-01-29 07:22:00,
2013-01-28 23:28:00,38.4,33.0,30.17,NW,321,0.0,3.0,81,0.00,,,0.00,0,HR-IXPWINDi_r2_v1.2.,2013-01-29 07:28:00,
2013-01-28 23:33:00,38.4,33.0,30.17,NW,321,1.0,2.0,81,0.00,,,0.00,0,HR-IXPWINDi_r2_v1.2.,2013-01-29 07:33:00,
2013-01-28 23:38:00,38.3,33.6,30.18,NW,321,0.0,2.0,83,0.00,,,0.00,0,HR-IXPWINDi_r2_v1.2.,2013-01-29 07:38:00,
2013-01-28 23:43:00,38.0,33.3,30.18,NNW,328,1.0,3.0,83,0.00,,,0.00,0,HR-IXPWINDi_r2_v1.2.,2013-01-29 07:43:00,
2013-01-28 23:48:00,38.6,33.2,30.17,NW,325,2.0,3.0,81,0.00,,,0.00,0,HR-IXPWINDi_r2_v1.2.,2013-01-29 07:48:00,
2013-01-28 23:54:00,38.6,33.2,30.17,NW,325,0.0,3.0,81,0.00,,,0.00,0,HR-IXPWINDi_r2_v1.2.,2013-01-29 07:54:00,
2013-01-28 23:59:00,38.2,33.2,30.17,NW,321,0.0,2.0,82,0.00,,,0.00,0,HR-IXPWINDi_r2_v1.2.,2013-01-29 07:59:00,